Rechercher aéroport 
image banner adimage banner ad
image banner ad

LEVITR - Villanueva del Trabuco

Situé à , Spain

ICAO - , IATA -

Données fournies par Airmate  

Information générale

Coordonnées: N37°3'49" W4°19'49"
Élévation : 2416 feet MSL.
 
Évalué:
Voir évaluations: [VIEW]


Voir autres Aéroports à Málaga

Données opérationnelles

Accessible au public
Heure actuelle UTC:
Heure actuelle locale:
Météo à : LEMG - Malaga/Costa Del Sol ( 46 km )
METAR: LEMG 071230Z 12008KT 090V150 CAVOK 29/15 Q1015 NOSIG
TAF: TAF LEMG 071100Z 0712/0812 12009KT CAVOK TX31/0811Z TN20/0804Z BECMG 0719/0722 VRB02KT PROB30 TEMPO 0720/0724 3000 BR BKN005 PROB40 TEMPO 0801/0806 29006KT BECMG 0807/0810 13008KT
Voir NOTAMs / SUP AIP / TFR affectant cet aéroport [VIEW]
Fréquences de communication: [VIEW]

Pistes:

Identifiant RWYQFULongueur (ft)Largeur (ft)SurfaceLDA (ft)
219680DIRT
039680DIRT

Coordonnées de l'aéroport

Adresse: Spain

Vue satellite de LEVITR